createdAt,value
2023-02-19T00:04:46.001Z,87
2023-02-19T00:05:56.137Z,87
2023-02-19T00:08:19.818Z,87
2023-02-19T00:10:27.176Z,86
2023-02-19T00:12:21.436Z,86
2023-02-19T00:14:00.997Z,87
2023-02-19T00:15:12.342Z,87
2023-02-19T00:17:07.810Z,87
2023-02-19T00:18:21.404Z,87
2023-02-19T00:20:35.982Z,86
2023-02-19T00:22:31.139Z,87
2023-02-19T00:28:23.272Z,86
2023-02-19T00:29:52.692Z,86
2023-02-19T00:33:58.446Z,86
2023-02-19T00:35:05.849Z,86
2023-02-19T00:36:27.108Z,86
2023-02-19T00:37:34.390Z,86
2023-02-19T00:40:22.845Z,86
2023-02-19T00:42:26.435Z,87
2023-02-19T00:45:13.413Z,86
2023-02-19T00:50:52.416Z,86
2023-02-19T00:52:33.087Z,86
2023-02-19T00:57:33.576Z,86
2023-02-19T00:59:02.371Z,86
2023-02-19T01:03:50.211Z,87
2023-02-19T01:06:03.161Z,86
2023-02-19T01:07:12.828Z,87
2023-02-19T01:10:26.941Z,87
2023-02-19T01:12:42.539Z,87
2023-02-19T01:21:17.939Z,87
2023-02-19T01:24:36.966Z,87
2023-02-19T01:27:40.353Z,87
2023-02-19T01:29:43.233Z,87
2023-02-19T01:32:46.483Z,87
2023-02-19T01:34:02.281Z,88
2023-02-19T01:38:53.086Z,87
2023-02-19T01:42:30.451Z,87
2023-02-19T01:46:20.981Z,87
2023-02-19T01:49:06.405Z,87
2023-02-19T01:55:07.955Z,88
2023-02-19T01:57:21.122Z,87
2023-02-19T01:58:45.091Z,87
2023-02-19T02:01:41.823Z,88
2023-02-19T02:07:47.145Z,88
2023-02-19T02:09:03.502Z,87
2023-02-19T02:10:44.772Z,87
2023-02-19T02:17:05.634Z,87
2023-02-19T02:19:14.615Z,87
2023-02-19T02:21:52.493Z,87
2023-02-19T02:24:00.740Z,87
2023-02-19T02:26:17.409Z,87
2023-02-19T02:28:56.558Z,87
2023-02-19T02:30:14.149Z,87
2023-02-19T02:31:38.885Z,87
2023-02-19T02:33:57.135Z,87
2023-02-19T02:36:05.367Z,87
2023-02-19T02:39:29.989Z,87
2023-02-19T02:40:59.199Z,87
2023-02-19T02:43:28.921Z,87
2023-02-19T02:44:54.244Z,87
2023-02-19T02:47:11.977Z,87
2023-02-19T02:48:19.459Z,87
2023-02-19T02:52:24.792Z,87
2023-02-19T02:54:29.648Z,88
2023-02-19T02:59:31.150Z,88
2023-02-19T03:03:47.073Z,88
2023-02-19T03:05:34.298Z,88
2023-02-19T03:08:24.988Z,88
2023-02-19T03:09:47.219Z,88
2023-02-19T03:12:21.156Z,88
2023-02-19T03:14:50.540Z,88
2023-02-19T03:17:14.405Z,88
2023-02-19T03:18:34.760Z,88
2023-02-19T03:21:28.706Z,87
2023-02-19T03:26:25.722Z,87
2023-02-19T03:29:59.458Z,87
2023-02-19T03:31:20.731Z,87
2023-02-19T03:35:06.244Z,87
2023-02-19T03:36:18.480Z,87
2023-02-19T03:39:28.492Z,87
2023-02-19T03:44:54.917Z,87
2023-02-19T03:46:25.858Z,87
2023-02-19T03:48:07.816Z,87
2023-02-19T03:51:03.340Z,87
2023-02-19T03:55:09.233Z,87
2023-02-19T03:58:50.655Z,87
2023-02-19T04:00:11.816Z,87
2023-02-19T04:02:27.999Z,87
2023-02-19T04:04:29.997Z,87
2023-02-19T04:10:34.153Z,87
2023-02-19T04:12:47.730Z,87
2023-02-19T04:16:32.341Z,87
2023-02-19T04:20:20.649Z,87
2023-02-19T04:23:03.267Z,87
2023-02-19T04:27:50.330Z,87
2023-02-19T04:31:20.350Z,87
2023-02-19T04:33:17.914Z,87
2023-02-19T04:36:54.665Z,87
2023-02-19T04:40:42.533Z,87
2023-02-19T04:44:48.518Z,87
2023-02-19T04:48:14.744Z,87
2023-02-19T04:50:22.376Z,88
2023-02-19T04:57:35.888Z,88
2023-02-19T05:00:07.131Z,88
2023-02-19T05:03:50.263Z,88
2023-02-19T05:07:28.815Z,88
2023-02-19T05:10:07.589Z,88
2023-02-19T05:16:36.305Z,89
2023-02-19T05:18:48.640Z,89
2023-02-19T05:22:11.740Z,89
2023-02-19T05:24:08.985Z,89
2023-02-19T05:26:53.027Z,88
2023-02-19T05:29:12.394Z,88
2023-02-19T05:31:52.102Z,88
2023-02-19T05:34:32.030Z,88
2023-02-19T05:35:42.855Z,88
2023-02-19T05:36:51.715Z,89
2023-02-19T05:45:48.986Z,89
2023-02-19T05:50:28.106Z,88
2023-02-19T05:52:41.814Z,88
2023-02-19T05:54:20.602Z,88
2023-02-19T05:56:48.214Z,89
2023-02-19T06:00:34.046Z,89
2023-02-19T06:05:01.511Z,89
2023-02-19T06:08:34.130Z,88
2023-02-19T06:12:44.835Z,89
2023-02-19T06:14:31.439Z,89
2023-02-19T06:15:38.550Z,89
2023-02-19T06:17:27.578Z,89
2023-02-19T06:19:31.348Z,89
2023-02-19T06:20:41.624Z,89
2023-02-19T06:24:48.560Z,89
2023-02-19T06:34:49.313Z,89
2023-02-19T06:37:38.431Z,89
2023-02-19T06:38:45.972Z,89
2023-02-19T06:40:17.235Z,89
2023-02-19T06:47:29.831Z,89
2023-02-19T06:49:59.080Z,89
2023-02-19T06:54:40.047Z,89
2023-02-19T06:56:55.274Z,89
2023-02-19T07:04:16.268Z,89
2023-02-19T07:07:22.324Z,90
2023-02-19T07:10:47.047Z,90
2023-02-19T07:14:32.139Z,89
2023-02-19T07:22:02.974Z,89
2023-02-19T07:23:18.026Z,90
2023-02-19T07:24:30.817Z,90
2023-02-19T07:26:52.932Z,90
2023-02-19T07:28:50.562Z,90
2023-02-19T07:30:03.022Z,90
2023-02-19T07:31:15.177Z,89
2023-02-19T07:32:23.151Z,90
2023-02-19T07:34:07.174Z,90
2023-02-19T07:35:52.062Z,90
2023-02-19T07:37:43.033Z,90
2023-02-19T07:39:47.939Z,90
2023-02-19T07:41:17.699Z,90
2023-02-19T07:42:26.294Z,89
2023-02-19T07:44:55.990Z,90
2023-02-19T07:46:07.906Z,90
2023-02-19T07:49:13.014Z,90
2023-02-19T07:50:30.206Z,90
2023-02-19T07:53:17.831Z,89
2023-02-19T07:55:18.931Z,90
2023-02-19T07:57:30.471Z,90
2023-02-19T08:00:07.727Z,90
2023-02-19T08:02:22.924Z,90
2023-02-19T08:03:40.140Z,90
2023-02-19T08:05:11.648Z,89
2023-02-19T08:07:11.736Z,90
2023-02-19T08:08:21.586Z,89
2023-02-19T08:10:13.648Z,90
2023-02-19T08:11:43.843Z,89
2023-02-19T08:12:59.555Z,89
2023-02-19T08:14:45.059Z,90
2023-02-19T08:16:33.407Z,89
2023-02-19T08:17:52.168Z,89
2023-02-19T08:20:52.655Z,90
2023-02-19T08:25:20.858Z,90
2023-02-19T08:28:59.407Z,90
2023-02-19T08:30:45.780Z,89
2023-02-19T08:32:49.863Z,90
2023-02-19T08:34:52.938Z,89
2023-02-19T08:37:22.390Z,89
2023-02-19T08:42:28.702Z,88
2023-02-19T08:43:50.182Z,88
2023-02-19T08:45:01.931Z,89
2023-02-19T08:46:57.764Z,88
2023-02-19T08:48:36.036Z,88
2023-02-19T08:49:48.691Z,88
2023-02-19T08:53:02.936Z,88
2023-02-19T08:56:08.737Z,88
2023-02-19T08:58:40.419Z,88
2023-02-19T09:01:25.061Z,88
2023-02-19T09:08:40.109Z,88
2023-02-19T09:13:00.509Z,88
2023-02-19T09:15:05.787Z,89
2023-02-19T09:16:14.116Z,88
2023-02-19T09:19:59.258Z,88
2023-02-19T09:21:42.447Z,89
2023-02-19T09:22:59.415Z,89
2023-02-19T09:24:09.939Z,89
2023-02-19T09:27:21.746Z,89
2023-02-19T09:28:44.756Z,89
2023-02-19T09:30:06.794Z,89
2023-02-19T09:31:46.544Z,89
2023-02-19T09:35:30.639Z,89
2023-02-19T09:37:16.857Z,89
2023-02-19T09:38:28.662Z,89
2023-02-19T09:40:01.618Z,89
2023-02-19T09:42:19.043Z,88
2023-02-19T09:43:40.246Z,89
2023-02-19T09:46:44.934Z,89
2023-02-19T09:49:06.444Z,89
2023-02-19T09:50:51.778Z,89
2023-02-19T09:52:55.978Z,89
2023-02-19T09:54:42.961Z,89
2023-02-19T09:58:03.815Z,89
2023-02-19T10:01:06.151Z,89
2023-02-19T10:05:08.516Z,89
2023-02-19T10:06:33.870Z,89
2023-02-19T10:10:23.541Z,89
2023-02-19T10:13:56.621Z,89
2023-02-19T10:15:27.048Z,89
2023-02-19T10:17:02.377Z,89
2023-02-19T10:18:11.218Z,89
2023-02-19T10:19:17.176Z,89
2023-02-19T10:20:31.072Z,89
2023-02-19T10:23:50.810Z,89
2023-02-19T10:25:17.149Z,89
2023-02-19T10:26:25.684Z,89
2023-02-19T10:27:40.860Z,89
2023-02-19T10:28:56.903Z,89
2023-02-19T10:30:56.638Z,89
2023-02-19T10:34:35.781Z,89
2023-02-19T10:36:00.811Z,89
2023-02-19T10:37:22.294Z,89
2023-02-19T10:39:42.157Z,89
2023-02-19T10:43:46.974Z,89
2023-02-19T10:45:02.278Z,89
2023-02-19T10:48:14.854Z,89
2023-02-19T10:50:47.319Z,89
2023-02-19T10:53:15.726Z,89
2023-02-19T10:57:27.689Z,89
2023-02-19T11:00:56.423Z,89
2023-02-19T11:04:32.709Z,88
2023-02-19T11:11:42.453Z,88
2023-02-19T11:16:31.268Z,88
2023-02-19T11:18:21.940Z,88
2023-02-19T11:33:02.843Z,87
2023-02-19T11:35:33.533Z,88
2023-02-19T11:37:27.799Z,87
2023-02-19T11:44:01.353Z,88
2023-02-19T11:46:03.236Z,88
2023-02-19T11:47:40.321Z,88
2023-02-19T11:50:52.291Z,88
2023-02-19T11:53:26.388Z,88
2023-02-19T11:58:33.595Z,88
2023-02-19T12:01:32.694Z,88
2023-02-19T12:03:27.711Z,88
2023-02-19T12:04:40.794Z,87
2023-02-19T12:05:51.323Z,87
2023-02-19T12:07:25.167Z,88
2023-02-19T12:08:42.566Z,88
2023-02-19T12:09:56.249Z,88
2023-02-19T12:11:26.429Z,88
2023-02-19T12:14:52.275Z,88
2023-02-19T12:16:05.715Z,88
2023-02-19T12:17:21.015Z,88
2023-02-19T12:19:38.174Z,88
2023-02-19T12:20:53.154Z,88
2023-02-19T12:22:07.885Z,88
2023-02-19T12:23:46.433Z,88
2023-02-19T12:25:06.418Z,88
2023-02-19T12:26:40.041Z,88
2023-02-19T12:27:57.154Z,88
2023-02-19T12:29:11.060Z,88
2023-02-19T12:30:28.432Z,88
2023-02-19T12:31:42.792Z,88
2023-02-19T12:33:35.737Z,88
2023-02-19T12:34:53.230Z,88
2023-02-19T12:36:19.812Z,88
2023-02-19T12:37:28.400Z,88
2023-02-19T12:38:48.000Z,89
2023-02-19T12:40:21.940Z,88
2023-02-19T12:41:37.048Z,88
2023-02-19T12:43:14.813Z,88
2023-02-19T12:44:24.293Z,88
2023-02-19T12:45:48.028Z,88
2023-02-19T12:47:38.085Z,88
2023-02-19T12:50:59.685Z,88
2023-02-19T12:52:18.685Z,88
2023-02-19T12:53:34.776Z,88
2023-02-19T12:56:04.708Z,88
2023-02-19T12:58:16.338Z,88
2023-02-19T13:00:28.821Z,88
2023-02-19T13:02:32.524Z,87
2023-02-19T13:03:48.295Z,88
2023-02-19T13:04:55.412Z,88
2023-02-19T13:07:16.679Z,87
2023-02-19T13:09:05.661Z,88
2023-02-19T13:10:55.208Z,88
2023-02-19T13:12:13.808Z,88
2023-02-19T13:14:26.566Z,87
2023-02-19T13:15:43.795Z,88
2023-02-19T13:16:51.350Z,87
2023-02-19T13:18:08.704Z,88
2023-02-19T13:19:38.594Z,88
2023-02-19T13:21:20.923Z,88
2023-02-19T13:22:49.788Z,88
2023-02-19T13:24:07.466Z,88
2023-02-19T13:25:21.028Z,88
2023-02-19T13:27:21.241Z,88
2023-02-19T13:28:36.050Z,88
2023-02-19T13:30:26.722Z,88
2023-02-19T13:33:13.521Z,88
2023-02-19T13:36:37.862Z,87
2023-02-19T13:38:07.771Z,88
2023-02-19T13:39:33.778Z,87
2023-02-19T13:40:46.601Z,87
2023-02-19T13:42:44.169Z,87
2023-02-19T13:44:04.153Z,87
2023-02-19T13:45:11.705Z,88
2023-02-19T13:46:19.185Z,87
2023-02-19T13:47:41.450Z,87
2023-02-19T13:49:01.696Z,87
2023-02-19T13:50:18.818Z,87
2023-02-19T13:51:35.087Z,87
2023-02-19T13:53:02.798Z,87
2023-02-19T13:54:15.573Z,87
2023-02-19T13:55:30.890Z,87
2023-02-19T13:57:02.629Z,87
2023-02-19T13:58:39.795Z,86
2023-02-19T14:00:11.994Z,87
2023-02-19T14:03:29.286Z,87
2023-02-19T14:06:06.648Z,86
2023-02-19T14:12:04.575Z,86
2023-02-19T14:14:27.946Z,86
2023-02-19T14:32:50.975Z,87
2023-02-19T14:36:42.417Z,87
2023-02-19T14:39:41.188Z,86
2023-02-19T14:43:12.929Z,86
2023-02-19T14:47:08.238Z,86
2023-02-19T14:59:14.073Z,86
2023-02-19T15:03:35.199Z,85
2023-02-19T15:05:38.663Z,85
2023-02-19T15:06:50.255Z,85
2023-02-19T15:32:05.366Z,84
2023-02-19T15:41:28.217Z,84
2023-02-19T15:53:42.146Z,84
2023-02-19T15:57:08.480Z,84
2023-02-19T16:01:32.685Z,83
2023-02-19T16:06:31.453Z,83
2023-02-19T16:13:17.434Z,85
2023-02-19T16:28:06.801Z,86
2023-02-19T16:30:05.953Z,86
2023-02-19T16:35:18.770Z,86
2023-02-19T16:39:31.176Z,86
2023-02-19T16:42:35.895Z,86
2023-02-19T16:48:45.955Z,86
2023-02-19T16:52:08.091Z,85
2023-02-19T16:56:09.794Z,86
2023-02-19T17:02:23.509Z,85
2023-02-19T17:06:00.914Z,85
2023-02-19T17:09:14.570Z,85
2023-02-19T17:10:27.407Z,85
2023-02-19T17:12:50.595Z,85
2023-02-19T17:14:06.759Z,86
2023-02-19T17:15:52.585Z,85
2023-02-19T17:17:05.083Z,85
2023-02-19T17:18:13.646Z,86
2023-02-19T17:19:22.275Z,85
2023-02-19T17:20:50.414Z,86
2023-02-19T17:22:05.122Z,85
2023-02-19T17:24:13.850Z,85
2023-02-19T17:25:21.594Z,85
2023-02-19T17:26:31.598Z,85
2023-02-19T17:27:38.750Z,85
2023-02-19T17:28:46.150Z,85
2023-02-19T17:29:53.507Z,86
2023-02-19T17:31:58.275Z,85
2023-02-19T17:33:08.933Z,85
2023-02-19T17:34:31.290Z,86
2023-02-19T17:36:18.419Z,85
2023-02-19T17:38:58.425Z,85
2023-02-19T17:40:08.445Z,85
2023-02-19T17:44:43.087Z,85
2023-02-19T17:49:46.667Z,86
2023-02-19T17:54:40.994Z,85
2023-02-19T18:00:44.697Z,85
2023-02-19T18:08:50.254Z,86
2023-02-19T18:14:34.389Z,85
2023-02-19T18:16:04.169Z,85
2023-02-19T18:19:29.304Z,85
2023-02-19T18:20:37.737Z,85
2023-02-19T18:21:46.689Z,85
2023-02-19T18:22:53.757Z,85
2023-02-19T18:24:07.306Z,85
2023-02-19T18:25:17.492Z,85
2023-02-19T18:26:24.812Z,85
2023-02-19T18:27:33.104Z,85
2023-02-19T18:28:49.736Z,85
2023-02-19T18:29:57.470Z,85
2023-02-19T18:31:07.226Z,85
2023-02-19T18:32:20.642Z,85
2023-02-19T18:33:29.297Z,85
2023-02-19T18:34:36.473Z,85
2023-02-19T18:35:43.565Z,85
2023-02-19T18:36:54.703Z,85
2023-02-19T18:38:04.551Z,85
2023-02-19T18:39:15.171Z,85
2023-02-19T18:40:22.989Z,85
2023-02-19T18:41:40.872Z,85
2023-02-19T18:42:51.624Z,84
2023-02-19T18:44:04.065Z,84
2023-02-19T18:45:13.449Z,84
2023-02-19T18:46:20.471Z,84
2023-02-19T18:47:29.217Z,84
2023-02-19T18:49:03.181Z,84
2023-02-19T18:51:34.790Z,85
2023-02-19T18:53:34.761Z,84
2023-02-19T18:57:48.830Z,84
2023-02-19T18:59:06.497Z,84
2023-02-19T19:01:17.491Z,84
2023-02-19T19:02:33.803Z,84
2023-02-19T19:03:50.494Z,84
2023-02-19T19:05:13.937Z,84
2023-02-19T19:11:59.328Z,84
2023-02-19T19:13:37.894Z,84
2023-02-19T19:17:14.421Z,84
2023-02-19T19:18:53.186Z,84
2023-02-19T19:22:58.285Z,85
2023-02-19T19:28:42.269Z,84
2023-02-19T19:29:50.043Z,84
2023-02-19T19:31:14.291Z,83
2023-02-19T19:32:28.133Z,83
2023-02-19T19:33:37.413Z,83
2023-02-19T19:39:31.201Z,83
2023-02-19T19:41:27.649Z,83
2023-02-19T19:43:23.820Z,83
2023-02-19T19:45:10.068Z,83
2023-02-19T19:46:20.982Z,83
2023-02-19T19:49:34.942Z,82
2023-02-19T19:56:48.514Z,82
2023-02-19T19:58:44.514Z,82
2023-02-19T20:01:31.548Z,82
2023-02-19T20:02:39.584Z,82
2023-02-19T20:03:55.000Z,81
2023-02-19T20:05:10.967Z,81
2023-02-19T20:06:23.746Z,81
2023-02-19T20:08:10.383Z,81
2023-02-19T20:11:45.791Z,81
2023-02-19T20:12:59.087Z,81
2023-02-19T20:14:11.356Z,80
2023-02-19T20:15:36.666Z,80
2023-02-19T20:18:28.389Z,81
2023-02-19T20:20:32.844Z,80
2023-02-19T20:22:01.246Z,80
2023-02-19T20:23:11.137Z,80
2023-02-19T20:25:22.820Z,80
2023-02-19T20:26:31.052Z,80
2023-02-19T20:27:43.189Z,80
2023-02-19T20:28:56.249Z,80
2023-02-19T20:30:03.915Z,80
2023-02-19T20:33:10.924Z,80
2023-02-19T20:34:45.033Z,79
2023-02-19T20:36:34.549Z,80
2023-02-19T20:37:56.863Z,79
2023-02-19T20:43:19.192Z,79
2023-02-19T20:45:10.552Z,79
2023-02-19T20:48:57.809Z,80
2023-02-19T20:50:09.278Z,80
2023-02-19T20:51:30.926Z,80
2023-02-19T20:55:53.161Z,80
2023-02-19T20:57:18.555Z,80
2023-02-19T20:58:56.928Z,80
2023-02-19T21:00:27.108Z,80
2023-02-19T21:02:23.045Z,80
2023-02-19T21:04:13.307Z,80
2023-02-19T21:05:33.487Z,80
2023-02-19T21:09:55.067Z,80
2023-02-19T21:11:29.645Z,80
2023-02-19T21:13:15.836Z,80
2023-02-19T21:14:38.351Z,80
2023-02-19T21:16:51.834Z,80
2023-02-19T21:18:02.605Z,80
2023-02-19T21:20:18.599Z,80
2023-02-19T21:22:36.572Z,80
2023-02-19T21:24:46.560Z,80
2023-02-19T21:27:24.520Z,80
2023-02-19T21:29:32.685Z,80
2023-02-19T21:34:08.272Z,79
2023-02-19T21:36:04.254Z,79
2023-02-19T21:38:51.658Z,80
2023-02-19T21:40:36.772Z,80
2023-02-19T21:42:40.061Z,80
2023-02-19T21:45:58.547Z,80
2023-02-19T21:52:21.384Z,79
2023-02-19T21:53:50.575Z,79
2023-02-19T21:57:55.794Z,79
2023-02-19T22:02:02.033Z,79
2023-02-19T22:03:46.233Z,79
2023-02-19T22:11:13.518Z,79
2023-02-19T22:14:04.279Z,79
2023-02-19T22:15:37.367Z,79
2023-02-19T22:19:45.246Z,79
2023-02-19T22:21:14.587Z,79
2023-02-19T22:25:03.425Z,79
2023-02-19T22:26:20.820Z,79
2023-02-19T22:35:54.761Z,79
2023-02-19T22:41:33.588Z,79
2023-02-19T22:43:58.720Z,79
2023-02-19T22:49:13.409Z,80
2023-02-19T22:52:09.841Z,79
2023-02-19T22:53:21.704Z,80
2023-02-19T22:55:07.949Z,80
2023-02-19T22:58:27.409Z,80
2023-02-19T23:02:32.733Z,80
2023-02-19T23:06:56.167Z,80
2023-02-19T23:11:17.101Z,80
2023-02-19T23:12:28.894Z,80
2023-02-19T23:17:43.738Z,79
2023-02-19T23:19:47.594Z,79
2023-02-19T23:24:30.847Z,79
2023-02-19T23:26:15.052Z,79
2023-02-19T23:34:34.433Z,79
2023-02-19T23:35:55.682Z,79
2023-02-19T23:37:44.018Z,79
2023-02-19T23:45:12.990Z,79
2023-02-19T23:48:15.492Z,79
2023-02-19T23:52:53.908Z,79
